Time;durP1;ratioP1;P1;durP2;ratioP2;P2;SDS_P1;SDS_P2;PMS_P1;PMS_P2;Temp;Humidity;BMP_temperature;BMP_pressure;BME280_temperature;BME280_humidity;BME280_pressure;Samples;Min_cycle;Max_cycle;Signal;HPM_P1;HPM_P2
2024/01/01 00:00:44;;;;;;;17.80;8.70;;;;;;;-147.86;100.00;-17609.17;105762;1254;71833;-59
2024/01/01 00:03:15;;;;;;;17.20;7.80;;;;;;;-147.86;100.00;-17609.17;105734;1259;60921;-54
2024/01/01 00:05:42;;;;;;;12.90;7.20;;;;;;;-147.86;100.00;-17609.17;105837;1253;60445;-51
2024/01/01 00:08:09;;;;;;;16.90;8.00;;;;;;;-147.86;100.00;-17609.17;105817;1257;73040;-50
2024/01/01 00:10:37;;;;;;;12.00;7.20;;;;;;;-147.86;100.00;-17609.17;105901;1256;64613;-46
2024/01/01 00:13:03;;;;;;;15.30;7.80;;;;;;;-147.86;100.00;-17609.17;105808;1254;72470;-50
2024/01/01 00:15:30;;;;;;;13.00;7.60;;;;;;;-147.86;100.00;-17609.17;105806;1254;60960;-52
2024/01/01 00:17:57;;;;;;;16.60;7.90;;;;;;;-147.86;100.00;-17609.17;105834;1254;60235;-49
2024/01/01 00:20:24;;;;;;;18.30;7.40;;;;;;;-147.86;100.00;-17609.17;105806;1254;72977;-53
2024/01/01 00:22:52;;;;;;;11.40;7.30;;;;;;;-147.86;100.00;-17609.17;105880;1257;64669;-49
2024/01/01 00:25:18;;;;;;;11.70;6.90;;;;;;;-147.86;100.00;-17609.17;105876;1254;72833;-50
2024/01/01 00:27:46;;;;;;;17.00;7.80;;;;;;;-147.86;100.00;-17609.17;105837;1256;60899;-49
2024/01/01 00:30:13;;;;;;;16.50;8.80;;;;;;;-147.86;100.00;-17609.17;105844;1254;60324;-48
2024/01/01 00:32:40;;;;;;;14.90;7.80;;;;;;;-147.86;100.00;-17609.17;105778;1255;72911;-53
2024/01/01 00:35:08;;;;;;;15.10;7.70;;;;;;;-147.86;100.00;-17609.17;105833;1257;64632;-48
2024/01/01 00:37:36;;;;;;;16.10;8.30;;;;;;;-147.86;100.00;-17609.17;105810;1259;72578;-48
2024/01/01 00:40:03;;;;;;;19.20;8.30;;;;;;;-147.86;100.00;-17609.17;105675;1259;60870;-48
2024/01/01 00:42:33;;;;;;;15.80;8.00;;;;;;;-147.86;100.00;-17609.17;105868;1258;59866;-48
2024/01/01 00:45:00;;;;;;;13.70;8.10;;;;;;;-147.86;100.00;-17609.17;105789;1257;73078;-52
2024/01/01 00:47:27;;;;;;;14.20;7.60;;;;;;;-147.86;100.00;-17609.17;105821;1258;63723;-48
2024/01/01 00:49:54;;;;;;;16.40;7.80;;;;;;;-147.86;100.00;-17609.17;105851;1255;72866;-50
2024/01/01 00:52:21;;;;;;;14.40;7.70;;;;;;;-147.86;100.00;-17609.17;105842;1259;61111;-52
2024/01/01 00:54:48;;;;;;;13.30;7.60;;;;;;;-147.86;100.00;-17609.17;105891;1255;60113;-47
2024/01/01 00:57:15;;;;;;;16.10;7.70;;;;;;;-147.86;100.00;-17609.17;105907;1258;73029;-53
2024/01/01 00:59:42;;;;;;;13.50;7.30;;;;;;;-147.86;100.00;-17609.17;105830;1259;64702;-48
2024/01/01 01:02:08;;;;;;;13.10;7.30;;;;;;;-147.86;100.00;-17609.17;105871;1254;72615;-51
2024/01/01 01:04:36;;;;;;;16.70;8.00;;;;;;;-147.86;100.00;-17609.17;105816;1258;61057;-54
2024/01/01 01:07:05;;;;;;;15.50;8.30;;;;;;;-147.86;100.00;-17609.17;105742;1254;60164;-48
2024/01/01 01:09:32;;;;;;;14.10;8.20;;;;;;;-147.86;100.00;-17609.17;105700;1258;72987;-48
2024/01/01 01:11:59;;;;;;;16.00;8.50;;;;;;;-147.86;100.00;-17609.17;105829;1258;64486;-51
2024/01/01 01:14:27;;;;;;;13.20;7.80;;;;;;;-147.86;100.00;-17609.17;105804;1254;72740;-49
2024/01/01 01:16:55;;;;;;;16.90;8.10;;;;;;;-147.86;100.00;-17609.17;105935;1257;59718;-48
2024/01/01 01:19:22;;;;;;;20.40;8.30;;;;;;;-147.86;100.00;-17609.17;105838;1254;60331;-50
2024/01/01 01:21:49;;;;;;;15.10;8.80;;;;;;;-147.86;100.00;-17609.17;105852;1254;72925;-49
2024/01/01 01:24:18;;;;;;;17.20;8.50;;;;;;;-147.86;100.00;-17609.17;105801;1257;64817;-47
2024/01/01 01:26:45;;;;;;;14.70;8.90;;;;;;;-147.86;100.00;-17609.17;105860;1254;72475;-49
2024/01/01 01:29:13;;;;;;;18.60;8.90;;;;;;;-147.86;100.00;-17609.17;105865;1254;59733;-48
2024/01/01 01:31:44;;;;;;;12.60;7.70;;;;;;;-147.86;100.00;-17609.17;105724;1254;60038;-54
2024/01/01 01:34:14;;;;;;;17.90;9.00;;;;;;;-147.86;100.00;-17609.17;105838;1254;72996;-50
2024/01/01 01:36:41;;;;;;;17.40;8.80;;;;;;;-147.86;100.00;-17609.17;105906;1257;64689;-51
2024/01/01 01:39:09;;;;;;;19.70;8.60;;;;;;;-147.86;100.00;-17609.17;105819;1254;72486;-52
2024/01/01 01:41:38;;;;;;;16.80;8.50;;;;;;;-147.86;100.00;-17609.17;105790;1259;59599;-48
2024/01/01 01:44:05;;;;;;;16.10;7.60;;;;;;;-147.86;100.00;-17609.17;105692;1255;59730;-50
2024/01/01 01:46:32;;;;;;;20.40;7.80;;;;;;;-147.86;100.00;-17609.17;105866;1254;72871;-53
2024/01/01 01:48:59;;;;;;;19.30;9.30;;;;;;;-147.86;100.00;-17609.17;105677;1259;64663;-48
2024/01/01 01:51:25;;;;;;;15.40;9.10;;;;;;;-147.86;100.00;-17609.17;105864;1254;72655;-50
2024/01/01 01:53:52;;;;;;;20.10;8.70;;;;;;;-147.86;100.00;-17609.17;105735;1257;61110;-54
2024/01/01 01:56:19;;;;;;;16.00;7.80;;;;;;;-147.86;100.00;-17609.17;105772;1257;60276;-53
2024/01/01 01:58:46;;;;;;;14.70;8.20;;;;;;;-147.86;100.00;-17609.17;105675;1255;73109;-48
2024/01/01 02:01:13;;;;;;;15.00;8.80;;;;;;;-147.86;100.00;-17609.17;105730;1259;64602;-52
2024/01/01 02:03:40;;;;;;;16.00;8.20;;;;;;;-147.86;100.00;-17609.17;105833;1254;72698;-50
2024/01/01 02:06:07;;;;;;;15.10;8.40;;;;;;;-147.86;100.00;-17609.17;105866;1257;60457;-53
2024/01/01 02:08:34;;;;;;;14.70;8.30;;;;;;;-147.86;100.00;-17609.17;105707;1254;60626;-51
2024/01/01 02:11:01;;;;;;;16.90;8.30;;;;;;;-147.86;100.00;-17609.17;105828;1256;74284;-48
2024/01/01 02:13:29;;;;;;;22.60;9.30;;;;;;;-147.86;100.00;-17609.17;105704;1260;64628;-50
2024/01/01 02:15:56;;;;;;;16.30;8.70;;;;;;;-147.86;100.00;-17609.17;105696;1260;72613;-50
2024/01/01 02:18:25;;;;;;;24.40;9.90;;;;;;;-147.86;100.00;-17609.17;105854;1257;60927;-47
2024/01/01 02:20:53;;;;;;;21.50;9.60;;;;;;;-147.86;100.00;-17609.17;105689;1255;60405;-53
2024/01/01 02:23:20;;;;;;;18.20;8.80;;;;;;;-147.86;100.00;-17609.17;105867;1254;73760;-51
2024/01/01 02:25:47;;;;;;;18.30;9.30;;;;;;;-147.86;100.00;-17609.17;105886;1257;64724;-48
2024/01/01 02:28:14;;;;;;;17.00;9.70;;;;;;;-147.86;100.00;-17609.17;105694;1259;72571;-48
2024/01/01 02:30:42;;;;;;;15.90;8.80;;;;;;;-147.86;100.00;-17609.17;105869;1254;60536;-50
2024/01/01 02:33:09;;;;;;;22.70;9.60;;;;;;;-147.86;100.00;-17609.17;105679;1255;60572;-47
2024/01/01 02:35:36;;;;;;;21.10;9.00;;;;;;;-147.86;100.00;-17609.17;105868;1259;73879;-46
2024/01/01 02:38:04;;;;;;;20.10;10.40;;;;;;;-147.86;100.00;-17609.17;105826;1256;64732;-49
2024/01/01 02:40:32;;;;;;;22.90;10.60;;;;;;;-147.86;100.00;-17609.17;105867;1256;71590;-52
2024/01/01 02:43:00;;;;;;;20.90;10.20;;;;;;;-147.86;100.00;-17609.17;105838;1257;61459;-51
2024/01/01 02:45:29;;;;;;;25.20;12.00;;;;;;;-147.86;100.00;-17609.17;105815;1254;60409;-50
2024/01/01 02:47:56;;;;;;;19.10;10.10;;;;;;;-147.86;100.00;-17609.17;105850;1257;73631;-50
2024/01/01 02:50:25;;;;;;;25.70;11.50;;;;;;;-147.86;100.00;-17609.17;105705;1259;64514;-52
2024/01/01 02:52:52;;;;;;;22.10;11.20;;;;;;;-147.86;100.00;-17609.17;105706;1254;72668;-47
2024/01/01 02:55:20;;;;;;;21.90;10.70;;;;;;;-147.86;100.00;-17609.17;105669;1259;61107;-45
2024/01/01 02:57:46;;;;;;;21.50;11.10;;;;;;;-147.86;100.00;-17609.17;105699;1260;60751;-53
2024/01/01 03:00:14;;;;;;;28.50;11.20;;;;;;;-147.86;100.00;-17609.17;105792;1257;73781;-48
2024/01/01 03:02:41;;;;;;;19.50;10.70;;;;;;;-147.86;100.00;-17609.17;105778;1257;64629;-51
2024/01/01 03:05:08;;;;;;;23.20;10.70;;;;;;;-147.86;100.00;-17609.17;105671;1254;72504;-47
2024/01/01 03:07:36;;;;;;;27.20;11.80;;;;;;;-147.86;100.00;-17609.17;105828;1259;60760;-49
2024/01/01 03:10:04;;;;;;;22.50;11.70;;;;;;;-147.86;100.00;-17609.17;105815;1254;60451;-51
2024/01/01 03:12:32;;;;;;;20.80;10.50;;;;;;;-147.86;100.00;-17609.17;105862;1259;72318;-51
2024/01/01 03:15:00;;;;;;;26.50;11.30;;;;;;;-147.86;100.00;-17609.17;105852;1260;62732;-48
2024/01/01 03:17:27;;;;;;;21.40;10.20;;;;;;;-147.86;100.00;-17609.17;105784;1257;72604;-53
2024/01/01 03:19:54;;;;;;;21.00;10.20;;;;;;;-147.86;100.00;-17609.17;105570;1259;60925;-52
2024/01/01 03:22:22;;;;;;;21.40;10.30;;;;;;;-147.86;100.00;-17609.17;105602;1260;60402;-51
2024/01/01 03:24:49;;;;;;;21.40;10.50;;;;;;;-147.86;100.00;-17609.17;105679;1254;73822;-53
2024/01/01 03:27:17;;;;;;;19.40;10.10;;;;;;;-147.86;100.00;-17609.17;105860;1257;64741;-54
2024/01/01 03:29:44;;;;;;;14.30;8.50;;;;;;;-147.86;100.00;-17609.17;105841;1257;72442;-55
2024/01/01 03:32:12;;;;;;;19.30;9.00;;;;;;;-147.86;100.00;-17609.17;105909;1257;60625;-55
2024/01/01 03:34:39;;;;;;;21.50;9.20;;;;;;;-147.86;100.00;-17609.17;105873;1254;60469;-55
2024/01/01 03:37:06;;;;;;;20.30;9.10;;;;;;;-147.86;100.00;-17609.17;105861;1258;72689;-48
2024/01/01 03:39:33;;;;;;;19.20;9.00;;;;;;;-147.86;100.00;-17609.17;105641;1254;64613;-50
2024/01/01 03:42:01;;;;;;;14.50;8.10;;;;;;;-147.86;100.00;-17609.17;105855;1257;72698;-48
2024/01/01 03:44:28;;;;;;;17.00;8.40;;;;;;;-147.86;100.00;-17609.17;105855;1257;60440;-49
2024/01/01 03:46:55;;;;;;;16.20;7.80;;;;;;;-147.86;100.00;-17609.17;105849;1253;60619;-49
2024/01/01 03:49:23;;;;;;;15.10;8.30;;;;;;;-147.86;100.00;-17609.17;105837;1257;73591;-48
2024/01/01 03:51:50;;;;;;;21.90;9.30;;;;;;;-147.86;100.00;-17609.17;105714;1259;64773;-49
2024/01/01 03:54:17;;;;;;;14.60;8.30;;;;;;;-147.86;100.00;-17609.17;105851;1259;72540;-48
2024/01/01 03:56:44;;;;;;;19.80;9.10;;;;;;;-147.86;100.00;-17609.17;105848;1258;60522;-51
2024/01/01 03:59:11;;;;;;;15.20;8.10;;;;;;;-147.86;100.00;-17609.17;105869;1254;60440;-54
2024/01/01 04:01:38;;;;;;;29.60;9.90;;;;;;;-147.86;100.00;-17609.17;105826;1255;74244;-52
2024/01/01 04:04:06;;;;;;;18.40;9.00;;;;;;;-147.86;100.00;-17609.17;105827;1256;63691;-53
2024/01/01 04:06:33;;;;;;;15.90;8.30;;;;;;;-147.86;100.00;-17609.17;105877;1260;72604;-48
2024/01/01 04:09:01;;;;;;;14.30;8.10;;;;;;;-147.86;100.00;-17609.17;105693;1260;60409;-51
2024/01/01 04:11:28;;;;;;;21.00;9.80;;;;;;;-147.86;100.00;-17609.17;105855;1255;60479;-52
2024/01/01 04:13:55;;;;;;;19.30;9.60;;;;;;;-147.86;100.00;-17609.17;105898;1258;72662;-50
2024/01/01 04:16:22;;;;;;;17.50;9.70;;;;;;;-147.86;100.00;-17609.17;105840;1257;64629;-52
2024/01/01 04:18:50;;;;;;;22.80;10.50;;;;;;;-147.86;100.00;-17609.17;105857;1258;72663;-48
2024/01/01 04:21:17;;;;;;;22.50;9.30;;;;;;;-147.86;100.00;-17609.17;105855;1257;60536;-51
2024/01/01 04:23:44;;;;;;;21.50;9.40;;;;;;;-147.86;100.00;-17609.17;105896;1253;60559;-52
2024/01/01 04:26:13;;;;;;;18.80;8.90;;;;;;;-147.86;100.00;-17609.17;105849;1255;72654;-53
2024/01/01 04:28:41;;;;;;;18.00;8.70;;;;;;;-147.86;100.00;-17609.17;105875;1258;64630;-50
2024/01/01 04:31:08;;;;;;;22.80;9.70;;;;;;;-147.86;100.00;-17609.17;105739;1254;71439;-49
2024/01/01 04:33:34;;;;;;;16.10;8.50;;;;;;;-147.86;100.00;-17609.17;105838;1259;60532;-52
2024/01/01 04:36:03;;;;;;;15.00;8.60;;;;;;;-147.86;100.00;-17609.17;105874;1253;60540;-50
2024/01/01 04:38:30;;;;;;;20.90;9.40;;;;;;;-147.86;100.00;-17609.17;105842;1255;73085;-54
2024/01/01 04:40:57;;;;;;;19.80;8.80;;;;;;;-147.86;100.00;-17609.17;105856;1258;64655;-50
2024/01/01 04:43:24;;;;;;;20.20;9.20;;;;;;;-147.86;100.00;-17609.17;105853;1257;72599;-53
2024/01/01 04:45:51;;;;;;;19.00;8.10;;;;;;;-147.86;100.00;-17609.17;105872;1260;60428;-49
2024/01/01 04:48:18;;;;;;;17.50;8.80;;;;;;;-147.86;100.00;-17609.17;105860;1255;60530;-50
2024/01/01 04:50:45;;;;;;;18.90;9.30;;;;;;;-147.86;100.00;-17609.17;105855;1255;73680;-54
2024/01/01 04:53:12;;;;;;;20.30;9.50;;;;;;;-147.86;100.00;-17609.17;105853;1256;64672;-52
2024/01/01 04:55:39;;;;;;;17.60;8.90;;;;;;;-147.86;100.00;-17609.17;105815;1257;72654;-51
2024/01/01 04:58:06;;;;;;;14.50;7.90;;;;;;;-147.86;100.00;-17609.17;105867;1266;60542;-49
2024/01/01 05:00:33;;;;;;;14.80;7.80;;;;;;;-147.86;100.00;-17609.17;105910;1254;60459;-49
2024/01/01 05:03:00;;;;;;;18.00;9.70;;;;;;;-147.86;100.00;-17609.17;105830;1253;73760;-47
2024/01/01 05:05:27;;;;;;;17.30;9.30;;;;;;;-147.86;100.00;-17609.17;105828;1257;64676;-51
2024/01/01 05:07:54;;;;;;;16.00;8.40;;;;;;;-147.86;100.00;-17609.17;105890;1257;71205;-50
2024/01/01 05:10:21;;;;;;;17.50;8.10;;;;;;;-147.86;100.00;-17609.17;105888;1257;60425;-49
2024/01/01 05:12:48;;;;;;;20.90;8.60;;;;;;;-147.86;100.00;-17609.17;105918;1260;60501;-52
2024/01/01 05:15:15;;;;;;;21.00;9.60;;;;;;;-147.86;100.00;-17609.17;105810;1257;72562;-49
2024/01/01 05:17:42;;;;;;;18.10;9.20;;;;;;;-147.86;100.00;-17609.17;105856;1257;65053;-48
2024/01/01 05:20:10;;;;;;;17.00;9.40;;;;;;;-147.86;100.00;-17609.17;105883;1255;72646;-50
2024/01/01 05:22:37;;;;;;;24.20;9.70;;;;;;;-147.86;100.00;-17609.17;105883;1259;60431;-50
2024/01/01 05:25:04;;;;;;;16.40;9.20;;;;;;;-147.86;100.00;-17609.17;105840;1255;60534;-49
2024/01/01 05:27:31;;;;;;;23.00;9.20;;;;;;;-147.86;100.00;-17609.17;105924;1255;73975;-52
2024/01/01 05:29:59;;;;;;;21.70;9.80;;;;;;;-147.86;100.00;-17609.17;105900;1256;64573;-50
2024/01/01 05:32:26;;;;;;;17.30;8.40;;;;;;;-147.86;100.00;-17609.17;105927;1257;72628;-54
2024/01/01 05:34:53;;;;;;;22.90;9.70;;;;;;;-147.86;100.00;-17609.17;105857;1256;60425;-54
2024/01/01 05:37:20;;;;;;;22.60;9.90;;;;;;;-147.86;100.00;-17609.17;105876;1255;60419;-52
2024/01/01 05:39:47;;;;;;;18.00;9.30;;;;;;;-147.86;100.00;-17609.17;105807;1260;73911;-52
2024/01/01 05:42:14;;;;;;;19.30;10.10;;;;;;;-147.86;100.00;-17609.17;105914;1257;64754;-52
2024/01/01 05:44:42;;;;;;;18.30;9.00;;;;;;;-147.86;100.00;-17609.17;105861;1257;72559;-49
2024/01/01 05:47:08;;;;;;;16.30;8.50;;;;;;;-147.86;100.00;-17609.17;105847;1254;61117;-52
2024/01/01 05:49:36;;;;;;;21.70;7.90;;;;;;;-147.86;100.00;-17609.17;105825;1254;60437;-52
2024/01/01 05:52:03;;;;;;;24.80;10.60;;;;;;;-147.86;100.00;-17609.17;105860;1257;73892;-52
2024/01/01 05:54:31;;;;;;;190.60;58.70;;;;;;;-147.86;100.00;-17609.17;105883;1257;64746;-50
2024/01/01 05:56:58;;;;;;;93.60;34.40;;;;;;;-147.86;100.00;-17609.17;105887;1257;72675;-49
2024/01/01 05:59:25;;;;;;;50.50;19.20;;;;;;;-147.86;100.00;-17609.17;105849;1257;60997;-54
2024/01/01 06:01:53;;;;;;;60.50;26.40;;;;;;;-147.86;100.00;-17609.17;105884;1254;60437;-49
2024/01/01 06:04:20;;;;;;;24.60;12.50;;;;;;;-147.86;100.00;-17609.17;105855;1256;73689;-51
2024/01/01 06:06:47;;;;;;;25.20;12.10;;;;;;;-147.86;100.00;-17609.17;105871;1257;64749;-51
2024/01/01 06:09:14;;;;;;;33.90;14.60;;;;;;;-147.86;100.00;-17609.17;105857;1257;72444;-49
2024/01/01 06:11:41;;;;;;;68.80;33.00;;;;;;;-147.86;100.00;-17609.17;105850;1256;61021;-52
2024/01/01 06:14:08;;;;;;;43.10;19.80;;;;;;;-147.86;100.00;-17609.17;105803;1254;60434;-52
2024/01/01 06:16:35;;;;;;;25.20;11.00;;;;;;;-147.86;100.00;-17609.17;105888;1257;73729;-49
2024/01/01 06:19:02;;;;;;;12.10;6.30;;;;;;;-147.86;100.00;-17609.17;105868;1257;64706;-49
2024/01/01 06:21:29;;;;;;;12.60;6.90;;;;;;;-147.86;100.00;-17609.17;105883;1254;72665;-53
2024/01/01 06:23:56;;;;;;;10.80;6.80;;;;;;;-147.86;100.00;-17609.17;105823;1259;61093;-46
2024/01/01 06:26:23;;;;;;;10.00;6.30;;;;;;;-147.86;100.00;-17609.17;105841;1254;60527;-49
2024/01/01 06:28:50;;;;;;;13.50;5.30;;;;;;;-147.86;100.00;-17609.17;105853;1257;73829;-51
2024/01/01 06:31:17;;;;;;;11.40;5.10;;;;;;;-147.86;100.00;-17609.17;105839;1256;64696;-53
2024/01/01 06:33:43;;;;;;;12.20;6.40;;;;;;;-147.86;100.00;-17609.17;105808;1257;72530;-54
2024/01/01 06:36:10;;;;;;;14.30;5.80;;;;;;;-147.86;100.00;-17609.17;105857;1258;61114;-48
2024/01/01 06:38:37;;;;;;;12.90;5.90;;;;;;;-147.86;100.00;-17609.17;105860;1254;60443;-53
2024/01/01 06:41:05;;;;;;;6.90;4.90;;;;;;;-147.86;100.00;-17609.17;105854;1257;73775;-49
2024/01/01 06:43:33;;;;;;;8.80;5.20;;;;;;;-147.86;100.00;-17609.17;105737;1259;64543;-52
2024/01/01 06:46:00;;;;;;;9.10;5.20;;;;;;;-147.86;100.00;-17609.17;105887;1254;72654;-52
2024/01/01 06:48:27;;;;;;;14.10;5.40;;;;;;;-147.86;100.00;-17609.17;105825;1258;61168;-47
2024/01/01 06:50:54;;;;;;;11.60;5.70;;;;;;;-147.86;100.00;-17609.17;105865;1254;60652;-53
2024/01/01 06:53:21;;;;;;;8.00;4.70;;;;;;;-147.86;100.00;-17609.17;105802;1256;73554;-49
2024/01/01 06:55:48;;;;;;;11.30;5.30;;;;;;;-147.86;100.00;-17609.17;105846;1257;64652;-50
2024/01/01 06:58:15;;;;;;;12.70;4.70;;;;;;;-147.86;100.00;-17609.17;105812;1256;72659;-52
2024/01/01 07:00:43;;;;;;;11.10;5.80;;;;;;;-147.86;100.00;-17609.17;105829;1257;60524;-52
2024/01/01 07:03:10;;;;;;;11.20;6.00;;;;;;;-147.86;100.00;-17609.17;105849;1254;60407;-50
2024/01/01 07:05:37;;;;;;;9.80;5.70;;;;;;;-147.86;100.00;-17609.17;105855;1254;74254;-50
2024/01/01 07:08:05;;;;;;;9.60;5.30;;;;;;;-147.86;100.00;-17609.17;105877;1257;64780;-55
2024/01/01 07:10:32;;;;;;;12.90;6.40;;;;;;;-147.86;100.00;-17609.17;105848;1255;72602;-53
2024/01/01 07:12:59;;;;;;;10.30;5.70;;;;;;;-147.86;100.00;-17609.17;105831;1257;60428;-53
2024/01/01 07:15:27;;;;;;;9.70;6.00;;;;;;;-147.86;100.00;-17609.17;105832;1257;60412;-50
2024/01/01 07:17:54;;;;;;;9.80;6.10;;;;;;;-147.86;100.00;-17609.17;105864;1257;73912;-54
2024/01/01 07:20:23;;;;;;;9.50;6.00;;;;;;;-147.86;100.00;-17609.17;105830;1256;65533;-49
2024/01/01 07:22:50;;;;;;;19.10;6.70;;;;;;;-147.86;100.00;-17609.17;105831;1255;72428;-51
2024/01/01 07:25:18;;;;;;;11.50;6.10;;;;;;;-147.86;100.00;-17609.17;105819;1257;61063;-47
2024/01/01 07:27:45;;;;;;;9.70;5.60;;;;;;;-147.86;100.00;-17609.17;105901;1254;60501;-49
2024/01/01 07:30:12;;;;;;;13.70;6.20;;;;;;;-147.86;100.00;-17609.17;105847;1257;73955;-50
2024/01/01 07:32:39;;;;;;;9.60;5.50;;;;;;;-147.86;100.00;-17609.17;105883;1254;63264;-52
2024/01/01 07:35:08;;;;;;;11.50;6.40;;;;;;;-147.86;100.00;-17609.17;105795;1254;72620;-53
2024/01/01 07:37:35;;;;;;;11.70;6.30;;;;;;;-147.86;100.00;-17609.17;105901;1257;61127;-50
2024/01/01 07:40:03;;;;;;;11.00;6.20;;;;;;;-147.86;100.00;-17609.17;105891;1254;61018;-51
2024/01/01 07:42:30;;;;;;;8.20;5.80;;;;;;;-147.86;100.00;-17609.17;105892;1257;73645;-50
2024/01/01 07:44:57;;;;;;;11.70;6.10;;;;;;;-147.86;100.00;-17609.17;105838;1257;64587;-52
2024/01/01 07:47:24;;;;;;;9.60;5.50;;;;;;;-147.86;100.00;-17609.17;105848;1254;72692;-54
2024/01/01 07:49:51;;;;;;;10.90;5.60;;;;;;;-147.86;100.00;-17609.17;105832;1257;61113;-51
2024/01/01 07:52:17;;;;;;;10.50;6.20;;;;;;;-147.86;100.00;-17609.17;105911;1257;60431;-54
2024/01/01 07:54:44;;;;;;;11.80;6.50;;;;;;;-147.86;100.00;-17609.17;105873;1254;73777;-49
2024/01/01 07:57:11;;;;;;;11.20;6.60;;;;;;;-147.86;100.00;-17609.17;105840;1257;64369;-55
2024/01/01 07:59:38;;;;;;;12.50;7.30;;;;;;;-147.86;100.00;-17609.17;105838;1254;71595;-51
2024/01/01 08:02:05;;;;;;;10.50;6.10;;;;;;;-147.86;100.00;-17609.17;105835;1256;61179;-54
2024/01/01 08:04:33;;;;;;;9.60;6.70;;;;;;;-147.86;100.00;-17609.17;105817;1254;61185;-54
2024/01/01 08:07:00;;;;;;;18.30;7.50;;;;;;;-147.86;100.00;-17609.17;105836;1254;72371;-51
2024/01/01 08:09:28;;;;;;;10.30;7.00;;;;;;;-147.86;100.00;-17609.17;105888;1257;63625;-50
2024/01/01 08:11:55;;;;;;;14.10;7.80;;;;;;;-147.86;100.00;-17609.17;105816;1254;72623;-54
2024/01/01 08:14:21;;;;;;;12.80;7.40;;;;;;;-147.86;100.00;-17609.17;105881;1257;60377;-53
2024/01/01 08:16:50;;;;;;;12.00;7.50;;;;;;;-147.86;100.00;-17609.17;105864;1254;60535;-52
2024/01/01 08:19:17;;;;;;;14.40;7.20;;;;;;;-147.86;100.00;-17609.17;105888;1254;72771;-50
2024/01/01 08:21:44;;;;;;;14.30;8.10;;;;;;;-147.86;100.00;-17609.17;105808;1257;64635;-55
2024/01/01 08:24:11;;;;;;;13.30;7.30;;;;;;;-147.86;100.00;-17609.17;105870;1254;72582;-54
2024/01/01 08:26:38;;;;;;;10.40;7.00;;;;;;;-147.86;100.00;-17609.17;105848;1257;61057;-53
2024/01/01 08:29:04;;;;;;;16.80;9.40;;;;;;;-147.86;100.00;-17609.17;105892;1257;60536;-53
2024/01/01 08:31:31;;;;;;;17.00;9.30;;;;;;;-147.86;100.00;-17609.17;105843;1256;73806;-51
2024/01/01 08:33:58;;;;;;;14.40;8.80;;;;;;;-147.86;100.00;-17609.17;105838;1257;64782;-53
2024/01/01 08:36:26;;;;;;;14.60;8.50;;;;;;;-147.86;100.00;-17609.17;105927;1254;72609;-51
2024/01/01 08:38:53;;;;;;;16.40;9.00;;;;;;;-147.86;100.00;-17609.17;105842;1257;60419;-53
2024/01/01 08:41:20;;;;;;;12.80;8.10;;;;;;;-147.86;100.00;-17609.17;105949;1254;60440;-54
2024/01/01 08:43:56;;;;;;;14.70;8.80;;;;;;;-147.86;100.00;-17609.17;105838;1257;73809;-53
2024/01/01 08:46:24;;;;;;;21.20;11.10;;;;;;;-147.86;100.00;-17609.17;105905;1257;64745;-54
2024/01/01 08:48:54;;;;;;;18.10;10.90;;;;;;;-147.86;100.00;-17609.17;105827;1254;72626;-52
2024/01/01 08:51:21;;;;;;;17.90;11.60;;;;;;;-147.86;100.00;-17609.17;105887;1257;61140;-52
2024/01/01 08:53:48;;;;;;;18.40;10.80;;;;;;;-147.86;100.00;-17609.17;105810;1254;60476;-54
2024/01/01 08:56:15;;;;;;;22.20;11.40;;;;;;;-147.86;100.00;-17609.17;105823;1254;72632;-51
2024/01/01 08:58:42;;;;;;;28.70;12.50;;;;;;;-147.86;100.00;-17609.17;105908;1256;64656;-51
2024/01/01 09:01:10;;;;;;;20.20;12.50;;;;;;;-147.86;100.00;-17609.17;105855;1254;72574;-55
2024/01/01 09:03:40;;;;;;;19.20;11.80;;;;;;;-147.86;100.00;-17609.17;105835;1257;61096;-53
2024/01/01 09:06:07;;;;;;;19.70;12.10;;;;;;;-147.86;100.00;-17609.17;105821;1254;61673;-54
2024/01/01 09:08:34;;;;;;;20.40;12.00;;;;;;;-147.86;100.00;-17609.17;105924;1256;74604;-53
2024/01/01 09:11:02;;;;;;;19.90;11.50;;;;;;;-147.86;100.00;-17609.17;105861;1257;63723;-53
2024/01/01 09:13:30;;;;;;;24.30;12.10;;;;;;;-147.86;100.00;-17609.17;105862;1254;72685;-53
2024/01/01 09:15:56;;;;;;;25.30;13.10;;;;;;;-147.86;100.00;-17609.17;105876;1257;60431;-54
2024/01/01 09:18:23;;;;;;;22.90;12.30;;;;;;;-147.86;100.00;-17609.17;105815;1254;60412;-53
2024/01/01 09:20:50;;;;;;;23.40;12.20;;;;;;;-147.86;100.00;-17609.17;105873;1254;72824;-55
2024/01/01 09:23:17;;;;;;;21.00;11.80;;;;;;;-147.86;100.00;-17609.17;105838;1257;64716;-56
2024/01/01 09:25:45;;;;;;;23.40;11.80;;;;;;;-147.86;100.00;-17609.17;105866;1257;72654;-54
2024/01/01 09:28:12;;;;;;;20.40;12.90;;;;;;;-147.86;100.00;-17609.17;105830;1257;60425;-54
2024/01/01 09:30:39;;;;;;;20.70;11.70;;;;;;;-147.86;100.00;-17609.17;105878;1254;60574;-54
2024/01/01 09:33:06;;;;;;;21.20;12.90;;;;;;;-147.86;100.00;-17609.17;105855;1254;73659;-58
2024/01/01 09:35:33;;;;;;;23.70;13.40;;;;;;;-147.86;100.00;-17609.17;105845;1257;64775;-56
2024/01/01 09:38:03;;;;;;;24.80;13.50;;;;;;;-147.86;100.00;-17609.17;105826;1254;72665;-58
2024/01/01 09:40:31;;;;;;;24.10;13.00;;;;;;;-147.86;100.00;-17609.17;105824;1257;60418;-57
2024/01/01 09:42:58;;;;;;;24.90;13.90;;;;;;;-147.86;100.00;-17609.17;105832;1257;60325;-51
2024/01/01 09:45:25;;;;;;;28.30;14.40;;;;;;;-147.86;100.00;-17609.17;105683;1254;73909;-59
2024/01/01 09:47:52;;;;;;;27.60;14.80;;;;;;;-147.86;100.00;-17609.17;105672;1259;64744;-56
2024/01/01 09:50:19;;;;;;;27.80;13.60;;;;;;;-147.86;100.00;-17609.17;105875;1254;72590;-56
2024/01/01 09:52:46;;;;;;;26.50;13.80;;;;;;;-147.86;100.00;-17609.17;105685;1257;62041;-57
2024/01/01 09:55:14;;;;;;;21.80;13.70;;;;;;;-147.86;100.00;-17609.17;105728;1253;60446;-57
2024/01/01 09:57:41;;;;;;;26.10;14.10;;;;;;;-147.86;100.00;-17609.17;105678;1254;73740;-56
2024/01/01 10:00:28;;;;;;;29.40;13.80;;;;;;;-147.86;100.00;-17609.17;105807;1257;64637;-54
2024/01/01 10:03:07;;;;;;;27.20;14.00;;;;;;;-147.86;100.00;-17609.17;105899;1254;72435;-55
2024/01/01 10:05:34;;;;;;;24.10;13.50;;;;;;;-147.86;100.00;-17609.17;105874;1253;60483;-57
2024/01/01 10:08:14;;;;;;;28.30;14.30;;;;;;;-147.86;100.00;-17609.17;105916;1253;60404;-58
2024/01/01 10:10:42;;;;;;;28.60;14.90;;;;;;;-147.86;100.00;-17609.17;105269;1253;849816;-53
2024/01/01 10:16:27;;;;;;;31.70;16.10;;;;;;;-147.86;100.00;-17609.17;102922;1290;600375;-54
2024/01/01 10:19:00;;;;;;;32.20;16.50;;;;;;;-147.86;100.00;-17609.17;105074;1267;61845;-52
2024/01/01 10:21:29;;;;;;;32.80;17.10;;;;;;;-147.86;100.00;-17609.17;105150;1264;59999;-53
2024/01/01 10:23:58;;;;;;;34.00;16.10;;;;;;;-147.86;100.00;-17609.17;105162;1264;70993;-55
2024/01/01 10:26:32;;;;;;;27.30;14.90;;;;;;;-147.86;100.00;-17609.17;105097;1270;65186;-52
2024/01/01 10:29:00;;;;;;;30.30;16.30;;;;;;;-147.86;100.00;-17609.17;104771;1267;208979;-53
2024/01/01 10:31:28;;;;;;;29.60;15.50;;;;;;;-147.86;100.00;-17609.17;105219;1261;60920;-54
2024/01/01 10:33:59;;;;;;;27.80;14.90;;;;;;;-147.86;100.00;-17609.17;105207;1267;59596;-55
2024/01/01 10:36:27;;;;;;;31.10;15.50;;;;;;;-147.86;100.00;-17609.17;105275;1261;70968;-53
2024/01/01 10:38:54;;;;;;;26.40;14.70;;;;;;;-147.86;100.00;-17609.17;105272;1266;63212;-51
2024/01/01 10:41:22;;;;;;;31.30;16.30;;;;;;;-147.86;100.00;-17609.17;105237;1266;72627;-57
2024/01/01 10:43:50;;;;;;;25.20;14.90;;;;;;;-147.86;100.00;-17609.17;105212;1264;59649;-54
2024/01/01 10:46:18;;;;;;;25.50;13.80;;;;;;;-147.86;100.00;-17609.17;105251;1266;59531;-51
2024/01/01 10:48:46;;;;;;;26.20;13.50;;;;;;;-147.86;100.00;-17609.17;105262;1266;71640;-52